createdAt,value
2022-08-30T00:00:36.544Z,4.15
2022-08-30T00:03:06.950Z,3.50
2022-08-30T00:05:34.656Z,3.85
2022-08-30T00:08:01.735Z,3.78
2022-08-30T00:10:29.745Z,4.18
2022-08-30T00:12:58.168Z,3.95
2022-08-30T00:15:25.430Z,3.47
2022-08-30T00:17:52.029Z,4.40
2022-08-30T00:20:22.546Z,4.15
2022-08-30T00:22:49.061Z,4.22
2022-08-30T00:25:16.582Z,3.90
2022-08-30T00:27:43.748Z,4.40
2022-08-30T00:30:13.284Z,3.97
2022-08-30T00:32:40.525Z,4.30
2022-08-30T00:35:09.402Z,4.22
2022-08-30T00:37:36.123Z,4.20
2022-08-30T00:40:05.610Z,4.10
2022-08-30T00:42:33.076Z,4.22
2022-08-30T00:45:31.644Z,4.55
2022-08-30T00:47:59.401Z,4.30
2022-08-30T00:50:32.970Z,4.35
2022-08-30T00:53:01.999Z,4.47
2022-08-30T00:55:30.371Z,4.90
2022-08-30T00:58:02.324Z,4.80
2022-08-30T01:00:31.205Z,4.95
2022-08-30T01:02:58.152Z,4.38
2022-08-30T01:05:30.010Z,4.95
2022-08-30T01:07:56.526Z,4.43
2022-08-30T01:10:23.213Z,4.22
2022-08-30T01:12:49.909Z,5.05
2022-08-30T01:15:19.100Z,5.10
2022-08-30T01:17:47.847Z,4.28
2022-08-30T01:20:27.097Z,4.22
2022-08-30T01:22:53.549Z,5.07
2022-08-30T01:25:24.849Z,5.00
2022-08-30T01:28:01.678Z,4.88
2022-08-30T01:30:29.842Z,4.93
2022-08-30T01:32:59.465Z,4.97
2022-08-30T01:35:28.977Z,4.90
2022-08-30T01:37:56.286Z,4.70
2022-08-30T01:40:22.873Z,4.65
2022-08-30T01:42:50.166Z,5.13
2022-08-30T01:45:21.792Z,5.75
2022-08-30T01:47:50.623Z,4.95
2022-08-30T01:50:17.240Z,5.63
2022-08-30T01:52:43.841Z,4.82
2022-08-30T01:55:10.554Z,5.40
2022-08-30T01:57:37.102Z,5.00
2022-08-30T02:00:07.828Z,5.20
2022-08-30T02:02:38.498Z,5.30
2022-08-30T02:05:06.153Z,5.57
2022-08-30T02:07:32.698Z,5.32
2022-08-30T02:09:59.380Z,5.28
2022-08-30T02:12:25.978Z,5.43
2022-08-30T02:14:57.979Z,5.88
2022-08-30T02:17:24.644Z,5.38
2022-08-30T02:19:51.276Z,5.38
2022-08-30T02:22:18.206Z,6.05
2022-08-30T02:24:46.074Z,5.68
2022-08-30T02:27:12.641Z,5.88
2022-08-30T02:29:39.134Z,5.43
2022-08-30T02:32:05.996Z,6.03
2022-08-30T02:34:35.915Z,6.50
2022-08-30T02:37:02.450Z,6.25
2022-08-30T02:39:29.007Z,6.28
2022-08-30T02:41:55.639Z,6.15
2022-08-30T02:44:22.318Z,6.15
2022-08-30T02:46:48.959Z,6.78
2022-08-30T02:52:05.184Z,7.00
2022-08-30T02:54:33.477Z,5.80
2022-08-30T02:57:04.544Z,6.43
2022-08-30T02:59:31.569Z,6.53
2022-08-30T03:01:58.246Z,7.32
2022-08-30T03:04:26.906Z,6.82
2022-08-30T03:06:54.043Z,6.97
2022-08-30T03:09:20.548Z,7.15
2022-08-30T03:11:47.320Z,6.72
2022-08-30T03:14:13.832Z,7.05
2022-08-30T03:16:40.474Z,6.70
2022-08-30T03:19:07.010Z,6.82
2022-08-30T03:21:33.643Z,6.80
2022-08-30T03:24:01.494Z,7.00
2022-08-30T03:26:27.993Z,6.63
2022-08-30T03:28:54.534Z,6.80
2022-08-30T03:31:21.171Z,6.70
2022-08-30T03:33:50.654Z,6.53
2022-08-30T03:36:17.197Z,7.25
2022-08-30T03:38:43.764Z,7.28
2022-08-30T03:41:10.320Z,7.05
2022-08-30T03:43:41.190Z,7.60
2022-08-30T03:46:11.078Z,7.95
2022-08-30T03:48:37.657Z,7.45
2022-08-30T03:51:06.057Z,8.35
2022-08-30T03:53:34.354Z,8.32
2022-08-30T03:56:00.960Z,7.88
2022-08-30T03:58:27.447Z,8.10
2022-08-30T04:00:54.042Z,7.88
2022-08-30T04:03:25.857Z,8.20
2022-08-30T04:05:56.209Z,8.73
2022-08-30T04:08:23.294Z,8.30
2022-08-30T04:10:49.931Z,8.70
2022-08-30T04:13:22.648Z,8.73
2022-08-30T04:15:49.440Z,8.63
2022-08-30T04:18:16.814Z,9.23
2022-08-30T04:20:43.625Z,9.25
2022-08-30T04:23:14.668Z,8.32
2022-08-30T04:25:42.196Z,8.65
2022-08-30T04:28:09.148Z,9.05
2022-08-30T04:30:40.270Z,9.15
2022-08-30T04:33:07.246Z,8.82
2022-08-30T04:35:33.781Z,9.63
2022-08-30T04:38:00.368Z,9.80
2022-08-30T04:40:26.938Z,9.43
2022-08-30T04:42:54.486Z,9.73
2022-08-30T04:45:22.619Z,10.00
2022-08-30T04:47:49.182Z,9.30
2022-08-30T04:50:18.874Z,9.82
2022-08-30T04:52:45.841Z,10.43
2022-08-30T04:55:20.072Z,10.55
2022-08-30T04:57:46.946Z,9.77
2022-08-30T05:00:14.628Z,8.77
2022-08-30T05:02:42.292Z,9.85
2022-08-30T05:05:31.011Z,9.88
2022-08-30T05:07:57.781Z,10.05
2022-08-30T05:10:25.230Z,9.30
2022-08-30T05:12:51.757Z,9.45
2022-08-30T05:15:19.719Z,9.60
2022-08-30T05:17:46.234Z,9.80
2022-08-30T05:20:12.958Z,10.20
2022-08-30T05:22:41.683Z,10.45
2022-08-30T05:25:14.735Z,9.25
2022-08-30T05:27:41.338Z,9.45
2022-08-30T05:30:08.742Z,11.07
2022-08-30T05:32:35.552Z,9.95
2022-08-30T05:35:06.545Z,9.75
2022-08-30T05:37:33.262Z,9.98
2022-08-30T05:39:59.993Z,10.05
2022-08-30T05:42:26.692Z,9.60
2022-08-30T05:44:57.926Z,10.35
2022-08-30T05:47:24.518Z,9.73
2022-08-30T05:49:51.189Z,10.45
2022-08-30T05:52:18.269Z,10.45
2022-08-30T05:54:45.934Z,9.90
2022-08-30T05:57:12.463Z,9.38
2022-08-30T05:59:39.023Z,9.52
2022-08-30T06:02:07.248Z,9.15
2022-08-30T06:04:36.769Z,10.00
2022-08-30T06:07:03.685Z,9.10
2022-08-30T06:09:30.741Z,9.50
2022-08-30T06:11:58.088Z,9.20
2022-08-30T06:14:28.819Z,9.02
2022-08-30T06:16:55.309Z,9.05
2022-08-30T06:19:23.142Z,8.77
2022-08-30T06:21:51.221Z,8.70
2022-08-30T06:24:20.768Z,8.05
2022-08-30T06:26:51.357Z,7.82
2022-08-30T06:29:19.866Z,8.95
2022-08-30T06:31:47.425Z,8.65
2022-08-30T06:34:17.210Z,8.32
2022-08-30T06:36:43.765Z,8.60
2022-08-30T06:39:10.874Z,8.00
2022-08-30T06:41:41.456Z,8.18
2022-08-30T06:44:45.637Z,7.93
2022-08-30T06:47:12.450Z,7.45
2022-08-30T06:49:38.996Z,8.05
2022-08-30T06:52:07.363Z,7.60
2022-08-30T06:54:34.462Z,7.68
2022-08-30T06:57:01.898Z,7.50
2022-08-30T06:59:28.489Z,7.40
2022-08-30T07:01:55.934Z,7.22
2022-08-30T07:04:25.055Z,6.57
2022-08-30T07:06:52.033Z,6.25
2022-08-30T07:09:19.447Z,6.38
2022-08-30T07:11:49.651Z,6.00
2022-08-30T07:14:19.121Z,5.90
2022-08-30T07:16:47.081Z,5.30
2022-08-30T07:19:20.294Z,5.43
2022-08-30T07:21:49.516Z,5.80
2022-08-30T07:24:41.574Z,4.82
2022-08-30T07:27:08.146Z,4.82
2022-08-30T07:29:34.642Z,4.90
2022-08-30T07:32:01.174Z,5.18
2022-08-30T07:34:27.693Z,4.68
2022-08-30T07:36:54.201Z,4.68
2022-08-30T07:39:20.932Z,3.50
2022-08-30T07:41:48.647Z,3.08
2022-08-30T07:44:16.875Z,3.10
2022-08-30T07:46:43.674Z,3.03
2022-08-30T07:49:11.843Z,2.85
2022-08-30T07:51:39.746Z,2.47
2022-08-30T07:54:10.543Z,2.25
2022-08-30T07:56:37.331Z,2.45
2022-08-30T07:59:04.546Z,2.42
2022-08-30T08:01:31.590Z,2.00
2022-08-30T08:03:59.866Z,1.90
2022-08-30T08:06:27.648Z,1.70
2022-08-30T08:09:02.289Z,2.08
2022-08-30T08:11:33.448Z,1.77
2022-08-30T08:14:03.715Z,1.48
2022-08-30T08:16:33.679Z,1.50
2022-08-30T08:19:00.561Z,1.55
2022-08-30T08:21:27.818Z,1.70
2022-08-30T08:23:55.252Z,1.90
2022-08-30T08:26:22.421Z,1.23
2022-08-30T08:28:49.454Z,1.70
2022-08-30T08:31:18.759Z,1.60
2022-08-30T08:33:47.268Z,1.55
2022-08-30T08:36:14.830Z,1.73
2022-08-30T08:38:41.487Z,1.85
2022-08-30T08:41:19.798Z,1.70
2022-08-30T08:43:47.977Z,1.50
2022-08-30T08:46:45.322Z,2.20
2022-08-30T08:49:12.473Z,2.05
2022-08-30T08:51:58.218Z,1.55
2022-08-30T08:54:48.582Z,1.77
2022-08-30T08:57:16.588Z,1.70
2022-08-30T08:59:45.007Z,1.50
2022-08-30T09:02:27.528Z,1.80
2022-08-30T09:04:59.555Z,1.52
2022-08-30T09:07:39.785Z,1.60
2022-08-30T09:10:06.800Z,2.00
2022-08-30T09:12:33.538Z,1.60
2022-08-30T09:15:25.136Z,1.88
2022-08-30T09:17:56.381Z,1.23
2022-08-30T09:20:34.886Z,1.40
2022-08-30T09:23:30.486Z,1.40
2022-08-30T09:26:01.671Z,1.77
2022-08-30T09:28:35.160Z,1.08
2022-08-30T09:31:21.282Z,1.88
2022-08-30T09:34:05.756Z,1.50
2022-08-30T09:36:43.947Z,1.10
2022-08-30T09:39:27.606Z,1.08
2022-08-30T09:41:55.639Z,1.50
2022-08-30T09:44:31.534Z,1.30
2022-08-30T09:47:01.145Z,1.10
2022-08-30T09:49:35.622Z,1.38
2022-08-30T09:52:12.044Z,1.20
2022-08-30T09:55:02.062Z,1.30
2022-08-30T09:57:47.606Z,1.17
2022-08-30T10:00:21.404Z,1.10
2022-08-30T10:03:07.505Z,1.17
2022-08-30T10:06:10.816Z,1.00
2022-08-30T10:08:56.170Z,0.75
2022-08-30T10:11:32.018Z,1.03
2022-08-30T10:14:18.720Z,0.98
2022-08-30T10:16:53.488Z,1.02
2022-08-30T10:22:24.983Z,1.00
2022-08-30T10:24:58.027Z,1.13
2022-08-30T10:27:38.625Z,1.20
2022-08-30T10:30:07.911Z,1.23
2022-08-30T10:32:43.204Z,1.20
2022-08-30T10:35:19.595Z,1.30
2022-08-30T10:37:58.265Z,1.10
2022-08-30T10:40:52.758Z,1.00
2022-08-30T10:43:52.771Z,1.50
2022-08-30T10:46:25.270Z,1.38
2022-08-30T10:48:53.905Z,1.40
2022-08-30T10:51:29.076Z,0.90
2022-08-30T10:54:13.984Z,1.85
2022-08-30T10:56:50.583Z,1.27
2022-08-30T10:59:19.266Z,1.50
2022-08-30T11:02:03.967Z,1.48
2022-08-30T11:05:00.694Z,1.30
2022-08-30T11:07:33.514Z,1.17
2022-08-30T11:10:09.076Z,1.50
2022-08-30T11:12:51.813Z,1.40
2022-08-30T11:15:22.415Z,1.95
2022-08-30T11:18:01.315Z,1.20
2022-08-30T11:20:36.752Z,1.30
2022-08-30T11:23:33.818Z,1.00
2022-08-30T11:26:05.380Z,1.20
2022-08-30T11:28:38.386Z,1.40
2022-08-30T11:31:20.466Z,1.50
2022-08-30T11:34:12.386Z,1.20
2022-08-30T11:39:52.038Z,1.27
2022-08-30T11:42:38.717Z,1.42
2022-08-30T11:45:22.006Z,1.30
2022-08-30T11:48:05.854Z,1.20
2022-08-30T11:50:53.987Z,1.20
2022-08-30T11:53:37.191Z,1.27
2022-08-30T11:56:13.081Z,1.20
2022-08-30T11:58:48.671Z,1.10
2022-08-30T12:01:50.191Z,2.03
2022-08-30T12:04:37.765Z,1.33
2022-08-30T12:07:08.185Z,1.15
2022-08-30T12:09:35.150Z,1.30
2022-08-30T12:12:12.435Z,1.40
2022-08-30T12:14:55.000Z,1.10
2022-08-30T12:18:15.352Z,1.00
2022-08-30T12:20:48.344Z,1.40
2022-08-30T12:23:44.429Z,1.52
2022-08-30T12:26:34.482Z,1.67
2022-08-30T12:29:10.129Z,1.50
2022-08-30T12:31:53.757Z,1.15
2022-08-30T12:34:26.320Z,1.33
2022-08-30T12:36:58.400Z,1.17
2022-08-30T12:39:31.853Z,1.13
2022-08-30T12:42:22.322Z,1.40
2022-08-30T12:44:52.258Z,1.27
2022-08-30T12:47:25.639Z,1.10
2022-08-30T12:49:53.928Z,2.15
2022-08-30T12:52:26.329Z,1.20
2022-08-30T12:54:55.133Z,1.20
2022-08-30T12:57:39.203Z,1.30
2022-08-30T13:00:08.547Z,1.15
2022-08-30T13:02:52.601Z,1.20
2022-08-30T13:05:45.575Z,1.40
2022-08-30T13:08:37.451Z,1.27
2022-08-30T13:11:24.808Z,1.10
2022-08-30T13:14:30.569Z,1.00
2022-08-30T13:17:20.433Z,1.30
2022-08-30T13:20:05.841Z,1.27
2022-08-30T13:22:59.516Z,0.90
2022-08-30T13:25:28.861Z,1.48
2022-08-30T13:27:55.430Z,1.23
2022-08-30T13:30:22.289Z,1.02
2022-08-30T13:32:50.084Z,1.20
2022-08-30T13:35:16.871Z,1.17
2022-08-30T13:37:50.526Z,1.20
2022-08-30T13:40:20.998Z,1.20
2022-08-30T13:42:48.569Z,1.40
2022-08-30T13:48:03.926Z,1.20
2022-08-30T13:50:30.849Z,1.30
2022-08-30T13:52:57.674Z,1.10
2022-08-30T13:55:24.658Z,1.15
2022-08-30T13:57:55.296Z,1.20
2022-08-30T14:00:24.937Z,1.30
2022-08-30T14:02:57.764Z,1.00
2022-08-30T14:06:09.917Z,1.23
2022-08-30T14:11:18.575Z,1.25
2022-08-30T14:16:39.455Z,1.23
2022-08-30T14:19:06.579Z,1.35
2022-08-30T14:21:35.494Z,1.00
2022-08-30T14:24:06.777Z,1.00
2022-08-30T14:26:40.716Z,1.20
2022-08-30T14:29:10.496Z,1.20
2022-08-30T14:31:39.033Z,1.65
2022-08-30T14:34:08.574Z,1.10
2022-08-30T14:36:36.861Z,1.30
2022-08-30T14:39:09.573Z,1.20
2022-08-30T14:41:43.709Z,1.20
2022-08-30T14:44:16.973Z,1.27
2022-08-30T14:46:44.098Z,1.30
2022-08-30T14:49:12.476Z,1.10
2022-08-30T14:51:39.888Z,1.23
2022-08-30T14:54:08.997Z,1.40
2022-08-30T14:56:37.733Z,1.38
2022-08-30T14:59:04.453Z,1.25
2022-08-30T15:01:31.736Z,1.30
2022-08-30T15:04:07.410Z,1.10
2022-08-30T15:06:35.885Z,1.30
2022-08-30T15:09:03.595Z,1.25
2022-08-30T15:11:30.537Z,1.17
2022-08-30T15:14:05.876Z,1.33
2022-08-30T15:16:35.768Z,1.23
2022-08-30T15:19:04.212Z,1.30
2022-08-30T15:21:34.561Z,1.00
2022-08-30T15:24:09.118Z,1.20
2022-08-30T15:26:36.675Z,1.58
2022-08-30T15:29:03.864Z,1.40
2022-08-30T15:31:31.830Z,1.20
2022-08-30T15:34:01.721Z,1.30
2022-08-30T15:36:29.239Z,1.25
2022-08-30T15:38:57.189Z,1.20
2022-08-30T15:41:24.466Z,1.30
2022-08-30T15:43:57.241Z,1.30
2022-08-30T15:46:29.944Z,1.38
2022-08-30T15:49:00.971Z,1.30
2022-08-30T15:51:28.653Z,1.20
2022-08-30T15:53:59.136Z,1.20
2022-08-30T15:56:26.055Z,1.30
2022-08-30T15:58:53.167Z,1.38
2022-08-30T16:01:30.087Z,1.27
2022-08-30T16:04:00.804Z,0.90
2022-08-30T16:06:34.741Z,1.40
2022-08-30T16:09:01.615Z,1.60
2022-08-30T16:11:28.322Z,1.20
2022-08-30T16:13:56.965Z,1.20
2022-08-30T16:16:24.678Z,1.30
2022-08-30T16:18:53.710Z,1.23
2022-08-30T16:21:29.572Z,1.23
2022-08-30T16:24:01.590Z,1.27
2022-08-30T16:26:29.712Z,1.30
2022-08-30T16:28:56.939Z,1.35
2022-08-30T16:31:26.096Z,1.20
2022-08-30T16:34:02.795Z,1.23
2022-08-30T16:36:32.271Z,1.50
2022-08-30T16:38:59.269Z,1.33
2022-08-30T16:41:26.182Z,1.20
2022-08-30T16:43:53.868Z,1.33
2022-08-30T16:46:26.915Z,1.27
2022-08-30T16:48:57.021Z,1.23
2022-08-30T16:51:26.249Z,1.13
2022-08-30T16:53:58.635Z,1.50
2022-08-30T16:56:27.175Z,1.13
2022-08-30T16:59:01.376Z,1.20
2022-08-30T17:01:30.721Z,1.10
2022-08-30T17:03:58.630Z,1.15
2022-08-30T17:06:25.152Z,1.50
2022-08-30T17:08:52.565Z,1.23
2022-08-30T17:11:23.770Z,1.20
2022-08-30T17:13:54.998Z,1.15
2022-08-30T17:16:27.896Z,1.48
2022-08-30T17:18:59.595Z,1.20
2022-08-30T17:21:28.760Z,1.52
2022-08-30T17:23:58.458Z,1.30
2022-08-30T17:26:32.869Z,1.02
2022-08-30T17:29:00.107Z,1.52
2022-08-30T17:31:29.087Z,1.23
2022-08-30T17:34:02.815Z,1.30
2022-08-30T17:36:31.791Z,1.08
2022-08-30T17:38:58.350Z,1.63
2022-08-30T17:41:25.248Z,1.08
2022-08-30T17:43:55.741Z,1.25
2022-08-30T17:46:22.601Z,1.30
2022-08-30T17:48:57.977Z,1.40
2022-08-30T17:51:29.426Z,1.35
2022-08-30T17:54:00.955Z,1.17
2022-08-30T17:56:34.362Z,1.02
2022-08-30T17:59:04.781Z,1.10
2022-08-30T18:01:31.738Z,1.50
2022-08-30T18:04:05.929Z,1.23
2022-08-30T18:06:33.570Z,1.30
2022-08-30T18:09:01.410Z,1.10
2022-08-30T18:11:28.134Z,1.65
2022-08-30T18:13:54.633Z,1.17
2022-08-30T18:16:26.406Z,1.00
2022-08-30T18:18:57.265Z,0.98
2022-08-30T18:21:25.298Z,0.95
2022-08-30T18:23:53.431Z,1.02
2022-08-30T18:26:24.138Z,1.20
2022-08-30T18:28:51.411Z,1.30
2022-08-30T18:31:18.198Z,1.20
2022-08-30T18:33:49.225Z,1.23
2022-08-30T18:36:17.010Z,1.30
2022-08-30T18:38:44.394Z,1.27
2022-08-30T18:41:15.916Z,1.42
2022-08-30T18:43:46.857Z,1.58
2022-08-30T18:46:16.139Z,1.30
2022-08-30T18:48:46.107Z,1.13
2022-08-30T18:51:19.089Z,1.20
2022-08-30T18:53:49.879Z,1.08
2022-08-30T18:56:17.036Z,1.13
2022-08-30T18:58:44.837Z,1.10
2022-08-30T19:01:12.830Z,1.50
2022-08-30T19:03:43.746Z,1.10
2022-08-30T19:06:11.911Z,0.98
2022-08-30T19:08:40.227Z,1.08
2022-08-30T19:11:07.759Z,1.40
2022-08-30T19:13:46.712Z,1.10
2022-08-30T19:16:13.358Z,1.00
2022-08-30T19:18:40.356Z,1.10
2022-08-30T19:21:07.224Z,1.40
2022-08-30T19:23:43.393Z,1.35
2022-08-30T19:26:10.938Z,1.40
2022-08-30T19:28:37.888Z,1.50
2022-08-30T19:31:04.694Z,1.35
2022-08-30T19:33:33.873Z,1.25
2022-08-30T19:36:00.609Z,1.35
2022-08-30T19:38:27.246Z,1.00
2022-08-30T19:41:00.014Z,1.83
2022-08-30T19:43:28.217Z,1.20
2022-08-30T19:45:59.835Z,1.40
2022-08-30T19:48:32.280Z,1.42
2022-08-30T19:50:59.857Z,2.10
2022-08-30T19:53:28.429Z,1.15
2022-08-30T19:55:54.937Z,0.90
2022-08-30T19:58:21.426Z,1.15
2022-08-30T20:01:00.888Z,1.35
2022-08-30T20:03:38.081Z,1.27
2022-08-30T20:06:07.786Z,1.15
2022-08-30T20:08:35.634Z,1.38
2022-08-30T20:11:02.344Z,1.30
2022-08-30T20:13:34.170Z,1.30
2022-08-30T20:16:01.261Z,1.40
2022-08-30T20:18:28.860Z,1.42
2022-08-30T20:20:55.441Z,1.35
2022-08-30T20:23:25.608Z,1.10
2022-08-30T20:25:54.371Z,1.42
2022-08-30T20:28:21.710Z,1.40
2022-08-30T20:30:49.109Z,1.05
2022-08-30T20:33:18.574Z,1.40
2022-08-30T20:35:48.973Z,1.20
2022-08-30T20:38:25.401Z,1.45
2022-08-30T20:40:59.306Z,1.27
2022-08-30T20:43:30.539Z,1.00
2022-08-30T20:45:57.318Z,1.33
2022-08-30T20:48:27.004Z,1.50
2022-08-30T20:50:53.582Z,1.40
2022-08-30T20:53:24.414Z,0.95
2022-08-30T20:55:50.906Z,1.30
2022-08-30T20:58:17.707Z,1.67
2022-08-30T21:00:50.078Z,1.52
2022-08-30T21:03:27.412Z,1.15
2022-08-30T21:05:55.122Z,1.20
2022-08-30T21:08:21.737Z,1.42
2022-08-30T21:10:48.266Z,1.42
2022-08-30T21:13:16.465Z,1.58
2022-08-30T21:15:46.296Z,1.50
2022-08-30T21:18:16.060Z,1.13
2022-08-30T21:20:42.681Z,1.50
2022-08-30T21:23:12.502Z,1.20
2022-08-30T21:25:40.767Z,1.00
2022-08-30T21:28:07.599Z,1.20
2022-08-30T21:30:35.613Z,1.52
2022-08-30T21:33:04.354Z,1.38
2022-08-30T21:35:50.017Z,1.50
2022-08-30T21:38:17.389Z,1.60
2022-08-30T21:40:44.374Z,1.40
2022-08-30T21:43:22.773Z,1.30
2022-08-30T21:45:51.233Z,1.42
2022-08-30T21:48:18.054Z,1.45
2022-08-30T21:50:46.418Z,1.52
2022-08-30T21:53:17.106Z,1.60
2022-08-30T21:55:43.945Z,1.30
2022-08-30T21:58:11.058Z,1.50
2022-08-30T22:00:37.615Z,1.40
2022-08-30T22:03:04.339Z,1.40
2022-08-30T22:05:31.249Z,1.55
2022-08-30T22:08:01.037Z,1.50
2022-08-30T22:10:32.409Z,1.42
2022-08-30T22:13:00.372Z,1.42
2022-08-30T22:15:28.175Z,1.40
2022-08-30T22:17:58.432Z,1.55
2022-08-30T22:20:31.335Z,1.52
2022-08-30T22:22:58.687Z,1.65
2022-08-30T22:25:26.621Z,1.48
2022-08-30T22:27:53.145Z,1.73
2022-08-30T22:30:19.659Z,1.90
2022-08-30T22:32:46.319Z,1.75
2022-08-30T22:35:13.081Z,1.70
2022-08-30T22:37:41.665Z,1.83
2022-08-30T22:40:14.180Z,1.75
2022-08-30T22:42:40.763Z,1.75
2022-08-30T22:45:15.062Z,1.75
2022-08-30T22:47:41.648Z,1.92
2022-08-30T22:50:10.346Z,1.90
2022-08-30T22:52:36.889Z,1.48
2022-08-30T22:55:04.249Z,2.10
2022-08-30T22:57:31.188Z,1.55
2022-08-30T22:59:57.665Z,1.77
2022-08-30T23:02:24.843Z,2.55
2022-08-30T23:04:55.870Z,1.70
2022-08-30T23:07:22.434Z,2.15
2022-08-30T23:09:48.910Z,1.70
2022-08-30T23:12:15.394Z,1.80
2022-08-30T23:14:42.269Z,1.90
2022-08-30T23:17:09.509Z,1.75
2022-08-30T23:19:35.984Z,1.73
2022-08-30T23:22:02.483Z,1.85
2022-08-30T23:24:56.621Z,1.70
2022-08-30T23:27:43.325Z,1.77
2022-08-30T23:30:29.296Z,1.90
2022-08-30T23:33:14.966Z,2.13
2022-08-30T23:38:45.228Z,1.75
2022-08-30T23:41:34.129Z,1.90
2022-08-30T23:44:20.878Z,1.90
2022-08-30T23:47:06.223Z,2.33
2022-08-30T23:49:51.273Z,1.95
2022-08-30T23:52:36.377Z,2.15
2022-08-30T23:55:24.099Z,1.80
2022-08-30T23:58:08.851Z,1.77
